sensor_id;sensor_type;location;lat;lon;timestamp;pressure;altitude;pressure_sealevel;temperature;humidity
31911;BME280;18457;52.432;16.914;2023-03-01T00:01:38;101986.94;;;-0.45;82.77
31911;BME280;18457;52.432;16.914;2023-03-01T00:04:09;101981.39;;;-0.50;82.01
31911;BME280;18457;52.432;16.914;2023-03-01T00:06:43;101980.98;;;-0.56;81.60
31911;BME280;18457;52.432;16.914;2023-03-01T00:09:19;101978.87;;;-0.55;82.63
31911;BME280;18457;52.432;16.914;2023-03-01T00:11:51;101984.73;;;-0.44;81.96
31911;BME280;18457;52.432;16.914;2023-03-01T00:14:23;101985.98;;;-0.43;82.01
31911;BME280;18457;52.432;16.914;2023-03-01T00:16:55;101982.59;;;-0.51;82.26
31911;BME280;18457;52.432;16.914;2023-03-01T00:19:27;101982.75;;;-0.56;83.02
31911;BME280;18457;52.432;16.914;2023-03-01T00:21:59;101978.52;;;-0.47;83.51
31911;BME280;18457;52.432;16.914;2023-03-01T00:24:30;101979.56;;;-0.48;83.14
31911;BME280;18457;52.432;16.914;2023-03-01T00:27:02;101977.71;;;-0.46;82.82
31911;BME280;18457;52.432;16.914;2023-03-01T00:29:34;101978.69;;;-0.51;82.60
31911;BME280;18457;52.432;16.914;2023-03-01T00:32:06;101973.48;;;-0.53;82.54
31911;BME280;18457;52.432;16.914;2023-03-01T00:34:38;101966.94;;;-0.52;82.04
31911;BME280;18457;52.432;16.914;2023-03-01T00:37:09;101963.48;;;-0.65;82.48
31911;BME280;18457;52.432;16.914;2023-03-01T00:39:43;101962.78;;;-0.61;82.71
31911;BME280;18457;52.432;16.914;2023-03-01T00:42:15;101958.11;;;-0.51;82.20
31911;BME280;18457;52.432;16.914;2023-03-01T00:44:47;101958.84;;;-0.54;82.85
31911;BME280;18457;52.432;16.914;2023-03-01T00:47:19;101955.52;;;-0.69;83.56
31911;BME280;18457;52.432;16.914;2023-03-01T00:49:51;101958.80;;;-0.70;84.49
31911;BME280;18457;52.432;16.914;2023-03-01T00:52:23;101952.20;;;-0.75;83.94
31911;BME280;18457;52.432;16.914;2023-03-01T00:54:55;101947.61;;;-0.90;84.10
31911;BME280;18457;52.432;16.914;2023-03-01T00:57:28;101945.77;;;-0.91;84.58
31911;BME280;18457;52.432;16.914;2023-03-01T01:00:00;101942.06;;;-0.83;84.84
31911;BME280;18457;52.432;16.914;2023-03-01T01:02:35;101941.79;;;-0.74;84.11
31911;BME280;18457;52.432;16.914;2023-03-01T01:05:08;101944.81;;;-0.70;83.96
31911;BME280;18457;52.432;16.914;2023-03-01T01:07:40;101945.24;;;-0.64;83.36
31911;BME280;18457;52.432;16.914;2023-03-01T01:10:12;101942.27;;;-0.56;83.16
31911;BME280;18457;52.432;16.914;2023-03-01T01:12:47;101932.69;;;-0.60;82.96
31911;BME280;18457;52.432;16.914;2023-03-01T01:15:20;101932.95;;;-0.73;81.97
31911;BME280;18457;52.432;16.914;2023-03-01T01:17:51;101935.23;;;-0.59;81.31
31911;BME280;18457;52.432;16.914;2023-03-01T01:20:24;101937.88;;;-0.63;82.68
31911;BME280;18457;52.432;16.914;2023-03-01T01:22:56;101938.07;;;-0.55;82.42
31911;BME280;18457;52.432;16.914;2023-03-01T01:25:28;101939.23;;;-0.57;83.13
31911;BME280;18457;52.432;16.914;2023-03-01T01:28:00;101939.46;;;-0.70;83.31
31911;BME280;18457;52.432;16.914;2023-03-01T01:30:31;101932.43;;;-0.73;83.35
31911;BME280;18457;52.432;16.914;2023-03-01T01:33:03;101930.71;;;-0.87;82.95
31911;BME280;18457;52.432;16.914;2023-03-01T01:35:35;101932.16;;;-1.02;83.31
31911;BME280;18457;52.432;16.914;2023-03-01T01:38:07;101936.30;;;-1.12;83.71
31911;BME280;18457;52.432;16.914;2023-03-01T01:40:45;101936.80;;;-1.13;84.80
31911;BME280;18457;52.432;16.914;2023-03-01T01:43:22;101931.52;;;-1.12;84.58
31911;BME280;18457;52.432;16.914;2023-03-01T01:45:56;101927.71;;;-1.17;84.14
31911;BME280;18457;52.432;16.914;2023-03-01T01:48:37;101928.64;;;-1.16;85.10
31911;BME280;18457;52.432;16.914;2023-03-01T01:51:15;101924.83;;;-1.07;85.37
31911;BME280;18457;52.432;16.914;2023-03-01T01:53:53;101919.94;;;-0.90;85.17
31911;BME280;18457;52.432;16.914;2023-03-01T01:56:27;101916.31;;;-1.00;83.79
31911;BME280;18457;52.432;16.914;2023-03-01T01:59:02;101914.98;;;-1.13;83.72
31911;BME280;18457;52.432;16.914;2023-03-01T02:01:34;101913.66;;;-1.03;83.35
31911;BME280;18457;52.432;16.914;2023-03-01T02:04:06;101914.24;;;-0.98;83.25
31911;BME280;18457;52.432;16.914;2023-03-01T02:06:41;101912.34;;;-0.90;82.77
31911;BME280;18457;52.432;16.914;2023-03-01T02:09:20;101908.20;;;-0.79;82.44
31911;BME280;18457;52.432;16.914;2023-03-01T02:11:53;101897.46;;;-0.93;82.78
31911;BME280;18457;52.432;16.914;2023-03-01T02:14:25;101899.56;;;-0.86;82.89
31911;BME280;18457;52.432;16.914;2023-03-01T02:16:57;101886.91;;;-0.79;81.54
31911;BME280;18457;52.432;16.914;2023-03-01T02:19:36;101877.60;;;-0.73;80.89
31911;BME280;18457;52.432;16.914;2023-03-01T02:22:12;101870.50;;;-0.69;80.54
31911;BME280;18457;52.432;16.914;2023-03-01T02:24:52;101873.06;;;-0.68;79.87
31911;BME280;18457;52.432;16.914;2023-03-01T02:27:33;101870.11;;;-0.70;79.72
31911;BME280;18457;52.432;16.914;2023-03-01T02:30:08;101866.53;;;-0.71;79.71
31911;BME280;18457;52.432;16.914;2023-03-01T02:32:42;101866.48;;;-0.76;80.66
31911;BME280;18457;52.432;16.914;2023-03-01T02:35:15;101869.45;;;-0.84;81.05
31911;BME280;18457;52.432;16.914;2023-03-01T02:37:49;101870.48;;;-0.86;81.15
31911;BME280;18457;52.432;16.914;2023-03-01T02:40:22;101867.26;;;-0.82;81.35
31911;BME280;18457;52.432;16.914;2023-03-01T02:42:56;101868.61;;;-0.80;81.44
31911;BME280;18457;52.432;16.914;2023-03-01T02:45:28;101856.30;;;-0.81;81.19
31911;BME280;18457;52.432;16.914;2023-03-01T02:48:01;101853.69;;;-0.84;81.00
31911;BME280;18457;52.432;16.914;2023-03-01T02:50:46;101853.34;;;-0.96;81.78
31911;BME280;18457;52.432;16.914;2023-03-01T02:53:28;101853.92;;;-1.10;82.88
31911;BME280;18457;52.432;16.914;2023-03-01T02:56:04;101851.94;;;-1.07;82.21
31911;BME280;18457;52.432;16.914;2023-03-01T02:58:44;101861.71;;;-0.99;82.25
31911;BME280;18457;52.432;16.914;2023-03-01T03:01:19;101862.66;;;-1.02;82.43
31911;BME280;18457;52.432;16.914;2023-03-01T03:03:51;101861.04;;;-1.02;82.43
31911;BME280;18457;52.432;16.914;2023-03-01T03:06:23;101860.30;;;-1.11;82.57
31911;BME280;18457;52.432;16.914;2023-03-01T03:08:55;101858.40;;;-1.10;82.71
31911;BME280;18457;52.432;16.914;2023-03-01T03:11:27;101858.77;;;-1.05;82.09
31911;BME280;18457;52.432;16.914;2023-03-01T03:14:00;101857.11;;;-1.10;82.21
31911;BME280;18457;52.432;16.914;2023-03-01T03:16:32;101857.33;;;-1.32;82.52
31911;BME280;18457;52.432;16.914;2023-03-01T03:19:04;101855.71;;;-1.36;83.51
31911;BME280;18457;52.432;16.914;2023-03-01T03:21:36;101852.39;;;-1.28;83.42
31911;BME280;18457;52.432;16.914;2023-03-01T03:24:08;101852.48;;;-1.19;82.99
31911;BME280;18457;52.432;16.914;2023-03-01T03:26:40;101851.23;;;-1.19;82.46
31911;BME280;18457;52.432;16.914;2023-03-01T03:29:12;101843.20;;;-1.23;82.91
31911;BME280;18457;52.432;16.914;2023-03-01T03:31:44;101843.40;;;-1.19;82.64
31911;BME280;18457;52.432;16.914;2023-03-01T03:34:16;101842.87;;;-1.15;82.35
31911;BME280;18457;52.432;16.914;2023-03-01T03:36:49;101840.38;;;-1.20;82.21
31911;BME280;18457;52.432;16.914;2023-03-01T03:39:27;101848.31;;;-1.28;82.70
31911;BME280;18457;52.432;16.914;2023-03-01T03:41:59;101848.09;;;-1.33;83.34
31911;BME280;18457;52.432;16.914;2023-03-01T03:44:31;101848.25;;;-1.33;83.53
31911;BME280;18457;52.432;16.914;2023-03-01T03:47:03;101850.92;;;-1.25;83.40
31911;BME280;18457;52.432;16.914;2023-03-01T03:49:35;101850.75;;;-1.21;83.15
31911;BME280;18457;52.432;16.914;2023-03-01T03:52:06;101853.12;;;-1.39;83.56
31911;BME280;18457;52.432;16.914;2023-03-01T03:54:44;101846.92;;;-1.35;83.21
31911;BME280;18457;52.432;16.914;2023-03-01T03:57:21;101844.86;;;-1.26;82.84
31911;BME280;18457;52.432;16.914;2023-03-01T03:59:58;101837.80;;;-1.18;81.98
31911;BME280;18457;52.432;16.914;2023-03-01T04:02:43;101835.87;;;-1.25;82.75
31911;BME280;18457;52.432;16.914;2023-03-01T04:05:18;101837.31;;;-1.28;83.34
31911;BME280;18457;52.432;16.914;2023-03-01T04:07:55;101838.98;;;-1.45;83.65
31911;BME280;18457;52.432;16.914;2023-03-01T04:10:40;101837.27;;;-1.36;83.19
31911;BME280;18457;52.432;16.914;2023-03-01T04:13:14;101834.23;;;-1.29;82.39
31911;BME280;18457;52.432;16.914;2023-03-01T04:15:47;101832.58;;;-1.31;82.15
31911;BME280;18457;52.432;16.914;2023-03-01T04:18:19;101833.99;;;-1.34;82.38
31911;BME280;18457;52.432;16.914;2023-03-01T04:20:52;101838.77;;;-1.61;82.67
31911;BME280;18457;52.432;16.914;2023-03-01T04:23:26;101836.73;;;-1.69;84.06
31911;BME280;18457;52.432;16.914;2023-03-01T04:25:59;101834.17;;;-1.75;84.65
31911;BME280;18457;52.432;16.914;2023-03-01T04:28:32;101832.58;;;-1.76;84.94
31911;BME280;18457;52.432;16.914;2023-03-01T04:31:07;101834.58;;;-1.89;84.40
31911;BME280;18457;52.432;16.914;2023-03-01T04:33:45;101834.91;;;-2.00;85.31
31911;BME280;18457;52.432;16.914;2023-03-01T04:36:19;101841.47;;;-1.89;86.29
31911;BME280;18457;52.432;16.914;2023-03-01T04:38:51;101841.00;;;-1.91;85.06
31911;BME280;18457;52.432;16.914;2023-03-01T04:41:26;101839.08;;;-1.80;84.40
31911;BME280;18457;52.432;16.914;2023-03-01T04:43:58;101834.88;;;-1.64;83.81
31911;BME280;18457;52.432;16.914;2023-03-01T04:46:29;101831.86;;;-1.57;83.53
31911;BME280;18457;52.432;16.914;2023-03-01T04:49:02;101834.66;;;-1.65;83.35
31911;BME280;18457;52.432;16.914;2023-03-01T04:51:35;101840.02;;;-1.71;84.40
31911;BME280;18457;52.432;16.914;2023-03-01T04:54:06;101831.42;;;-1.70;84.40
31911;BME280;18457;52.432;16.914;2023-03-01T04:56:39;101832.93;;;-1.75;84.62
31911;BME280;18457;52.432;16.914;2023-03-01T04:59:11;101831.23;;;-1.85;84.92
31911;BME280;18457;52.432;16.914;2023-03-01T05:01:43;101831.05;;;-1.92;85.17
31911;BME280;18457;52.432;16.914;2023-03-01T05:04:14;101832.30;;;-1.99;85.08
31911;BME280;18457;52.432;16.914;2023-03-01T05:06:46;101822.61;;;-1.90;85.25
31911;BME280;18457;52.432;16.914;2023-03-01T05:09:18;101825.61;;;-1.73;84.53
31911;BME280;18457;52.432;16.914;2023-03-01T05:11:49;101826.64;;;-1.77;84.13
31911;BME280;18457;52.432;16.914;2023-03-01T05:14:22;101825.38;;;-1.77;84.58
31911;BME280;18457;52.432;16.914;2023-03-01T05:16:54;101825.00;;;-1.92;84.48
31911;BME280;18457;52.432;16.914;2023-03-01T05:19:26;101831.34;;;-1.93;85.00
31911;BME280;18457;52.432;16.914;2023-03-01T05:21:57;101832.75;;;-1.97;85.32
31911;BME280;18457;52.432;16.914;2023-03-01T05:24:36;101835.29;;;-1.99;85.57
31911;BME280;18457;52.432;16.914;2023-03-01T05:27:09;101816.33;;;-2.03;85.86
31911;BME280;18457;52.432;16.914;2023-03-01T05:29:43;101829.30;;;-2.06;85.42
31911;BME280;18457;52.432;16.914;2023-03-01T05:32:15;101830.49;;;-2.07;85.85
31911;BME280;18457;52.432;16.914;2023-03-01T05:34:47;101834.47;;;-2.12;85.48
31911;BME280;18457;52.432;16.914;2023-03-01T05:37:19;101835.53;;;-2.12;85.57
31911;BME280;18457;52.432;16.914;2023-03-01T05:39:51;101833.27;;;-2.08;86.29
31911;BME280;18457;52.432;16.914;2023-03-01T05:42:22;101835.86;;;-2.02;86.26
31911;BME280;18457;52.432;16.914;2023-03-01T05:44:54;101833.20;;;-2.05;86.25
31911;BME280;18457;52.432;16.914;2023-03-01T05:47:25;101842.39;;;-2.02;85.98
31911;BME280;18457;52.432;16.914;2023-03-01T05:49:57;101845.09;;;-2.05;86.05
31911;BME280;18457;52.432;16.914;2023-03-01T05:52:30;101849.36;;;-1.97;86.26
31911;BME280;18457;52.432;16.914;2023-03-01T05:55:02;101842.60;;;-1.81;85.36
31911;BME280;18457;52.432;16.914;2023-03-01T05:57:34;101837.46;;;-1.69;84.10
31911;BME280;18457;52.432;16.914;2023-03-01T06:00:08;101839.44;;;-1.69;84.32
31911;BME280;18457;52.432;16.914;2023-03-01T06:02:43;101839.84;;;-1.79;84.91
31911;BME280;18457;52.432;16.914;2023-03-01T06:05:15;101837.59;;;-1.85;85.23
31911;BME280;18457;52.432;16.914;2023-03-01T06:07:47;101828.15;;;-1.72;85.00
31911;BME280;18457;52.432;16.914;2023-03-01T06:10:19;101823.05;;;-1.56;84.08
31911;BME280;18457;52.432;16.914;2023-03-01T06:12:51;101820.73;;;-1.45;82.87
31911;BME280;18457;52.432;16.914;2023-03-01T06:15:24;101823.39;;;-1.34;81.98
31911;BME280;18457;52.432;16.914;2023-03-01T06:17:56;101823.30;;;-1.24;81.64
31911;BME280;18457;52.432;16.914;2023-03-01T06:20:30;101825.70;;;-1.22;82.39
31911;BME280;18457;52.432;16.914;2023-03-01T06:23:02;101826.73;;;-1.23;83.20
31911;BME280;18457;52.432;16.914;2023-03-01T06:25:34;101830.20;;;-1.21;82.75
31911;BME280;18457;52.432;16.914;2023-03-01T06:28:06;101825.52;;;-1.15;82.89
31911;BME280;18457;52.432;16.914;2023-03-01T06:30:39;101828.82;;;-1.09;82.77
31911;BME280;18457;52.432;16.914;2023-03-01T06:33:12;101814.95;;;-1.02;81.78
31911;BME280;18457;52.432;16.914;2023-03-01T06:35:43;101816.83;;;-0.99;81.30
31911;BME280;18457;52.432;16.914;2023-03-01T06:38:15;101815.74;;;-1.00;82.20
31911;BME280;18457;52.432;16.914;2023-03-01T06:40:54;101816.02;;;-0.94;81.87
31911;BME280;18457;52.432;16.914;2023-03-01T06:43:27;101819.89;;;-1.06;83.76
31911;BME280;18457;52.432;16.914;2023-03-01T06:45:59;101821.19;;;-1.09;83.69
31911;BME280;18457;52.432;16.914;2023-03-01T06:48:30;101820.33;;;-1.09;83.76
31911;BME280;18457;52.432;16.914;2023-03-01T06:51:03;101816.35;;;-1.14;83.57
31911;BME280;18457;52.432;16.914;2023-03-01T06:53:35;101822.92;;;-1.21;84.09
31911;BME280;18457;52.432;16.914;2023-03-01T06:56:07;101820.55;;;-1.19;84.10
31911;BME280;18457;52.432;16.914;2023-03-01T06:58:39;101820.30;;;-1.17;84.22
31911;BME280;18457;52.432;16.914;2023-03-01T07:01:12;101818.73;;;-1.12;84.11
31911;BME280;18457;52.432;16.914;2023-03-01T07:03:43;101816.45;;;-1.08;83.44
31911;BME280;18457;52.432;16.914;2023-03-01T07:06:15;101814.99;;;-0.97;82.32
31911;BME280;18457;52.432;16.914;2023-03-01T07:08:48;101816.81;;;-0.96;82.98
31911;BME280;18457;52.432;16.914;2023-03-01T07:11:19;101816.19;;;-0.94;82.42
31911;BME280;18457;52.432;16.914;2023-03-01T07:13:51;101818.45;;;-0.87;82.43
31911;BME280;18457;52.432;16.914;2023-03-01T07:16:23;101820.86;;;-0.85;81.49
31911;BME280;18457;52.432;16.914;2023-03-01T07:18:56;101826.45;;;-0.78;81.20
31911;BME280;18457;52.432;16.914;2023-03-01T07:21:29;101825.16;;;-0.68;81.30
31911;BME280;18457;52.432;16.914;2023-03-01T07:24:01;101833.27;;;-0.57;80.91
31911;BME280;18457;52.432;16.914;2023-03-01T07:26:32;101832.41;;;-0.56;81.55
31911;BME280;18457;52.432;16.914;2023-03-01T07:29:07;101830.42;;;-0.45;81.83
31911;BME280;18457;52.432;16.914;2023-03-01T07:31:41;101824.17;;;-0.38;81.23
31911;BME280;18457;52.432;16.914;2023-03-01T07:34:13;101828.83;;;-0.24;81.35
31911;BME280;18457;52.432;16.914;2023-03-01T07:36:45;101828.79;;;-0.17;80.96
31911;BME280;18457;52.432;16.914;2023-03-01T07:39:17;101827.78;;;-0.07;80.55
31911;BME280;18457;52.432;16.914;2023-03-01T07:41:49;101820.61;;;0.04;80.22
31911;BME280;18457;52.432;16.914;2023-03-01T07:44:24;101824.86;;;0.12;79.83
31911;BME280;18457;52.432;16.914;2023-03-01T07:46:56;101826.83;;;0.26;79.43
31911;BME280;18457;52.432;16.914;2023-03-01T07:49:29;101830.56;;;0.39;78.82
31911;BME280;18457;52.432;16.914;2023-03-01T07:52:00;101828.71;;;0.46;78.77
31911;BME280;18457;52.432;16.914;2023-03-01T07:54:33;101829.64;;;0.56;78.37
31911;BME280;18457;52.432;16.914;2023-03-01T07:57:05;101836.48;;;0.67;77.69
31911;BME280;18457;52.432;16.914;2023-03-01T07:59:37;101836.36;;;0.73;76.58
31911;BME280;18457;52.432;16.914;2023-03-01T08:02:09;101837.95;;;0.77;75.33
31911;BME280;18457;52.432;16.914;2023-03-01T08:04:42;101835.82;;;0.87;75.24
31911;BME280;18457;52.432;16.914;2023-03-01T08:07:14;101836.00;;;0.96;74.81
31911;BME280;18457;52.432;16.914;2023-03-01T08:09:46;101832.66;;;1.07;74.67
31911;BME280;18457;52.432;16.914;2023-03-01T08:12:18;101832.33;;;1.12;73.74
31911;BME280;18457;52.432;16.914;2023-03-01T08:14:51;101827.76;;;1.19;73.50
31911;BME280;18457;52.432;16.914;2023-03-01T08:17:23;101828.80;;;1.28;73.02
31911;BME280;18457;52.432;16.914;2023-03-01T08:19:55;101830.02;;;1.37;72.25
31911;BME280;18457;52.432;16.914;2023-03-01T08:22:27;101826.61;;;1.45;71.68
31911;BME280;18457;52.432;16.914;2023-03-01T08:24:58;101818.31;;;1.53;71.05
31911;BME280;18457;52.432;16.914;2023-03-01T08:27:30;101819.48;;;1.60;70.69
31911;BME280;18457;52.432;16.914;2023-03-01T08:30:03;101821.93;;;1.74;70.72
31911;BME280;18457;52.432;16.914;2023-03-01T08:32:36;101817.15;;;1.86;70.76
31911;BME280;18457;52.432;16.914;2023-03-01T08:35:09;101818.65;;;1.93;69.18
31911;BME280;18457;52.432;16.914;2023-03-01T08:37:41;101814.52;;;1.98;68.41
31911;BME280;18457;52.432;16.914;2023-03-01T08:40:14;101817.11;;;2.06;68.27
31911;BME280;18457;52.432;16.914;2023-03-01T08:42:47;101817.08;;;2.16;68.49
31911;BME280;18457;52.432;16.914;2023-03-01T08:45:19;101814.35;;;2.25;68.77
31911;BME280;18457;52.432;16.914;2023-03-01T08:47:53;101813.41;;;2.34;68.36
31911;BME280;18457;52.432;16.914;2023-03-01T08:50:25;101808.70;;;2.38;67.04
31911;BME280;18457;52.432;16.914;2023-03-01T08:52:57;101804.27;;;2.44;66.90
31911;BME280;18457;52.432;16.914;2023-03-01T08:55:29;101807.20;;;2.52;67.44
31911;BME280;18457;52.432;16.914;2023-03-01T08:58:01;101798.39;;;2.61;66.49
31911;BME280;18457;52.432;16.914;2023-03-01T09:00:33;101799.78;;;2.72;66.49
31911;BME280;18457;52.432;16.914;2023-03-01T09:03:06;101795.38;;;2.80;65.92
31911;BME280;18457;52.432;16.914;2023-03-01T09:05:38;101798.38;;;2.91;65.64
31911;BME280;18457;52.432;16.914;2023-03-01T09:08:09;101799.08;;;2.96;64.55
31911;BME280;18457;52.432;16.914;2023-03-01T09:10:42;101797.16;;;3.04;64.33
31911;BME280;18457;52.432;16.914;2023-03-01T09:13:14;101792.54;;;3.11;64.17
31911;BME280;18457;52.432;16.914;2023-03-01T09:15:46;101785.09;;;3.19;63.86
31911;BME280;18457;52.432;16.914;2023-03-01T09:18:17;101779.10;;;3.22;63.27
31911;BME280;18457;52.432;16.914;2023-03-01T09:20:49;101776.02;;;3.27;63.35
31911;BME280;18457;52.432;16.914;2023-03-01T09:23:21;101779.45;;;3.34;63.42
31911;BME280;18457;52.432;16.914;2023-03-01T09:25:53;101778.80;;;3.43;63.45
31911;BME280;18457;52.432;16.914;2023-03-01T09:28:25;101784.78;;;3.53;63.28
31911;BME280;18457;52.432;16.914;2023-03-01T09:31:00;101784.70;;;3.64;63.35
31911;BME280;18457;52.432;16.914;2023-03-01T09:33:32;101786.48;;;3.70;62.59
31911;BME280;18457;52.432;16.914;2023-03-01T09:36:06;101794.38;;;3.78;62.16
31911;BME280;18457;52.432;16.914;2023-03-01T09:38:39;101791.45;;;3.83;61.78
31911;BME280;18457;52.432;16.914;2023-03-01T09:41:26;101794.38;;;3.85;61.61
31911;BME280;18457;52.432;16.914;2023-03-01T09:44:05;101787.88;;;3.90;61.35
31911;BME280;18457;52.432;16.914;2023-03-01T09:46:44;101784.98;;;4.02;61.21
31911;BME280;18457;52.432;16.914;2023-03-01T09:49:19;101785.02;;;4.11;60.87
31911;BME280;18457;52.432;16.914;2023-03-01T09:51:59;101778.62;;;4.20;60.06
31911;BME280;18457;52.432;16.914;2023-03-01T09:54:31;101779.41;;;4.31;59.61
31911;BME280;18457;52.432;16.914;2023-03-01T09:57:15;101777.29;;;4.32;58.32
31911;BME280;18457;52.432;16.914;2023-03-01T10:00:03;101783.26;;;4.42;58.69
31911;BME280;18457;52.432;16.914;2023-03-01T10:02:45;101787.05;;;4.52;59.04
31911;BME280;18457;52.432;16.914;2023-03-01T10:05:31;101786.95;;;4.64;58.97
31911;BME280;18457;52.432;16.914;2023-03-01T10:08:33;101786.26;;;4.80;58.74
31911;BME280;18457;52.432;16.914;2023-03-01T10:11:21;101785.98;;;4.93;58.60
31911;BME280;18457;52.432;16.914;2023-03-01T10:14:12;101781.16;;;5.02;58.56
31911;BME280;18457;52.432;16.914;2023-03-01T10:16:50;101778.98;;;5.09;58.33
31911;BME280;18457;52.432;16.914;2023-03-01T10:19:29;101780.75;;;5.17;58.34
31911;BME280;18457;52.432;16.914;2023-03-01T10:22:05;101779.52;;;5.36;58.60
31911;BME280;18457;52.432;16.914;2023-03-01T10:24:42;101776.67;;;5.56;57.75
31911;BME280;18457;52.432;16.914;2023-03-01T10:27:19;101773.45;;;5.66;57.58
31911;BME280;18457;52.432;16.914;2023-03-01T10:30:01;101777.77;;;5.85;57.90
31911;BME280;18457;52.432;16.914;2023-03-01T10:32:37;101776.35;;;5.96;57.45
31911;BME280;18457;52.432;16.914;2023-03-01T10:35:20;101774.41;;;6.08;57.14
31911;BME280;18457;52.432;16.914;2023-03-01T10:38:06;101768.48;;;6.20;57.21
31911;BME280;18457;52.432;16.914;2023-03-01T10:40:53;101764.37;;;6.21;56.92
31911;BME280;18457;52.432;16.914;2023-03-01T10:43:27;101760.90;;;6.29;57.13
31911;BME280;18457;52.432;16.914;2023-03-01T10:46:07;101753.91;;;6.42;57.16
31911;BME280;18457;52.432;16.914;2023-03-01T10:49:07;101755.98;;;6.49;56.83
31911;BME280;18457;52.432;16.914;2023-03-01T10:51:41;101753.09;;;6.60;57.16
31911;BME280;18457;52.432;16.914;2023-03-01T10:54:22;101747.95;;;6.78;57.60
31911;BME280;18457;52.432;16.914;2023-03-01T10:56:59;101745.05;;;6.90;57.80
31911;BME280;18457;52.432;16.914;2023-03-01T10:59:33;101740.66;;;6.98;57.78
31911;BME280;18457;52.432;16.914;2023-03-01T11:02:21;101739.92;;;7.11;57.26
31911;BME280;18457;52.432;16.914;2023-03-01T11:05:02;101733.31;;;7.32;57.01
31911;BME280;18457;52.432;16.914;2023-03-01T11:07:50;101727.14;;;7.44;56.94
31911;BME280;18457;52.432;16.914;2023-03-01T11:10:25;101726.01;;;7.57;57.07
31911;BME280;18457;52.432;16.914;2023-03-01T11:13:08;101726.67;;;7.70;57.43
31911;BME280;18457;52.432;16.914;2023-03-01T11:15:59;101727.05;;;7.91;56.76
31911;BME280;18457;52.432;16.914;2023-03-01T11:18:32;101726.17;;;7.95;56.26
31911;BME280;18457;52.432;16.914;2023-03-01T11:21:17;101730.30;;;7.93;55.36
31911;BME280;18457;52.432;16.914;2023-03-01T11:23:49;101719.92;;;7.79;54.74
31911;BME280;18457;52.432;16.914;2023-03-01T11:26:23;101712.43;;;7.88;54.71
31911;BME280;18457;52.432;16.914;2023-03-01T11:28:58;101716.72;;;8.06;55.37
31911;BME280;18457;52.432;16.914;2023-03-01T11:31:33;101712.00;;;8.25;54.21
31911;BME280;18457;52.432;16.914;2023-03-01T11:34:13;101708.16;;;8.43;54.29
31911;BME280;18457;52.432;16.914;2023-03-01T11:36:50;101711.25;;;8.46;54.86
31911;BME280;18457;52.432;16.914;2023-03-01T11:39:30;101713.98;;;8.50;55.55
31911;BME280;18457;52.432;16.914;2023-03-01T11:42:12;101707.33;;;8.54;54.38
31911;BME280;18457;52.432;16.914;2023-03-01T11:44:52;101710.17;;;8.47;54.08
31911;BME280;18457;52.432;16.914;2023-03-01T11:47:37;101705.83;;;8.43;53.61
31911;BME280;18457;52.432;16.914;2023-03-01T11:50:23;101697.91;;;8.44;53.31
31911;BME280;18457;52.432;16.914;2023-03-01T11:53:08;101695.12;;;8.61;54.04
31911;BME280;18457;52.432;16.914;2023-03-01T11:55:58;101692.56;;;8.55;54.00
31911;BME280;18457;52.432;16.914;2023-03-01T11:58:43;101693.48;;;8.56;54.60
31911;BME280;18457;52.432;16.914;2023-03-01T12:01:27;101690.02;;;8.50;53.94
31911;BME280;18457;52.432;16.914;2023-03-01T12:04:41;101687.47;;;8.46;54.68
31911;BME280;18457;52.432;16.914;2023-03-01T12:07:23;101691.50;;;8.58;53.99
31911;BME280;18457;52.432;16.914;2023-03-01T12:10:09;101687.20;;;8.61;53.88
31911;BME280;18457;52.432;16.914;2023-03-01T12:13:09;101687.09;;;8.78;53.79
31911;BME280;18457;52.432;16.914;2023-03-01T12:19:03;101680.28;;;8.89;54.69
31911;BME280;18457;52.432;16.914;2023-03-01T12:21:51;101675.91;;;8.75;54.07
31911;BME280;18457;52.432;16.914;2023-03-01T12:24:37;101666.52;;;8.68;54.33
31911;BME280;18457;52.432;16.914;2023-03-01T12:27:24;101655.91;;;8.75;55.02
31911;BME280;18457;52.432;16.914;2023-03-01T12:30:09;101649.45;;;8.87;56.59
31911;BME280;18457;52.432;16.914;2023-03-01T12:32:55;101647.48;;;8.91;54.42
31911;BME280;18457;52.432;16.914;2023-03-01T12:38:43;101639.75;;;8.99;53.89
31911;BME280;18457;52.432;16.914;2023-03-01T12:41:31;101641.02;;;9.03;54.17
31911;BME280;18457;52.432;16.914;2023-03-01T12:44:14;101648.06;;;9.07;53.85
31911;BME280;18457;52.432;16.914;2023-03-01T12:47:04;101647.14;;;8.97;53.56
31911;BME280;18457;52.432;16.914;2023-03-01T12:49:42;101642.62;;;8.95;54.02
31911;BME280;18457;52.432;16.914;2023-03-01T12:52:19;101644.30;;;9.15;54.15
31911;BME280;18457;52.432;16.914;2023-03-01T12:54:55;101648.44;;;9.14;53.69
31911;BME280;18457;52.432;16.914;2023-03-01T12:57:31;101645.52;;;8.93;53.99
31911;BME280;18457;52.432;16.914;2023-03-01T13:00:22;101638.13;;;8.96;54.68
31911;BME280;18457;52.432;16.914;2023-03-01T13:03:04;101638.17;;;9.19;54.48
31911;BME280;18457;52.432;16.914;2023-03-01T13:05:47;101640.70;;;9.15;54.59
31911;BME280;18457;52.432;16.914;2023-03-01T13:08:29;101641.25;;;9.23;54.71
31911;BME280;18457;52.432;16.914;2023-03-01T13:11:06;101639.03;;;9.00;53.57
31911;BME280;18457;52.432;16.914;2023-03-01T13:13:43;101632.21;;;9.15;54.18
31911;BME280;18457;52.432;16.914;2023-03-01T13:16:40;101625.75;;;9.36;54.38
31911;BME280;18457;52.432;16.914;2023-03-01T13:19:17;101622.30;;;9.23;53.78
31911;BME280;18457;52.432;16.914;2023-03-01T13:21:51;101613.30;;;9.28;53.90
31911;BME280;18457;52.432;16.914;2023-03-01T13:24:29;101606.08;;;9.33;53.97
31911;BME280;18457;52.432;16.914;2023-03-01T13:27:20;101610.23;;;9.32;53.80
31911;BME280;18457;52.432;16.914;2023-03-01T13:29:57;101604.45;;;9.30;53.55
31911;BME280;18457;52.432;16.914;2023-03-01T13:32:35;101604.29;;;9.33;53.57
31911;BME280;18457;52.432;16.914;2023-03-01T13:35:44;101599.95;;;9.27;52.70